sensor_id;sensor_type;location;lat;lon;timestamp;P1;durP1;ratioP1;P2;durP2;ratioP2
51957;SDS011;41120;51.820;20.804;2022-10-18T00:00:40;24.27;;;16.40;;
51957;SDS011;41120;51.820;20.804;2022-10-18T00:03:27;30.70;;;15.43;;
51957;SDS011;41120;51.820;20.804;2022-10-18T00:05:53;27.43;;;15.77;;
51957;SDS011;41120;51.820;20.804;2022-10-18T00:08:19;26.13;;;15.77;;
51957;SDS011;41120;51.820;20.804;2022-10-18T00:10:45;24.07;;;15.17;;
51957;SDS011;41120;51.820;20.804;2022-10-18T00:13:12;23.00;;;14.63;;
51957;SDS011;41120;51.820;20.804;2022-10-18T00:15:38;24.17;;;15.50;;
51957;SDS011;41120;51.820;20.804;2022-10-18T00:18:04;27.43;;;16.10;;
51957;SDS011;41120;51.820;20.804;2022-10-18T00:20:30;32.63;;;16.90;;
51957;SDS011;41120;51.820;20.804;2022-10-18T00:22:57;23.13;;;15.33;;
51957;SDS011;41120;51.820;20.804;2022-10-18T00:25:23;21.93;;;14.33;;
51957;SDS011;41120;51.820;20.804;2022-10-18T00:27:49;27.00;;;15.90;;
51957;SDS011;41120;51.820;20.804;2022-10-18T00:30:15;24.40;;;15.13;;
51957;SDS011;41120;51.820;20.804;2022-10-18T00:32:41;26.97;;;15.23;;
51957;SDS011;41120;51.820;20.804;2022-10-18T00:35:07;26.07;;;14.77;;
51957;SDS011;41120;51.820;20.804;2022-10-18T00:37:34;21.07;;;14.20;;
51957;SDS011;41120;51.820;20.804;2022-10-18T00:40:00;21.37;;;13.83;;
51957;SDS011;41120;51.820;20.804;2022-10-18T00:42:28;24.80;;;14.40;;
51957;SDS011;41120;51.820;20.804;2022-10-18T00:45:11;21.27;;;13.80;;
51957;SDS011;41120;51.820;20.804;2022-10-18T00:47:43;24.33;;;14.70;;
51957;SDS011;41120;51.820;20.804;2022-10-18T00:50:13;22.40;;;13.83;;
51957;SDS011;41120;51.820;20.804;2022-10-18T00:52:43;22.77;;;14.17;;
51957;SDS011;41120;51.820;20.804;2022-10-18T00:55:13;23.03;;;13.83;;
51957;SDS011;41120;51.820;20.804;2022-10-18T00:57:40;24.80;;;14.73;;
51957;SDS011;41120;51.820;20.804;2022-10-18T01:00:07;22.07;;;13.70;;
51957;SDS011;41120;51.820;20.804;2022-10-18T01:02:35;24.03;;;13.67;;
51957;SDS011;41120;51.820;20.804;2022-10-18T01:05:02;23.80;;;13.73;;
51957;SDS011;41120;51.820;20.804;2022-10-18T01:09:59;23.57;;;14.07;;
51957;SDS011;41120;51.820;20.804;2022-10-18T01:18:13;22.83;;;13.07;;
51957;SDS011;41120;51.820;20.804;2022-10-18T01:29:06;20.60;;;12.70;;
51957;SDS011;41120;51.820;20.804;2022-10-18T01:31:42;19.37;;;12.30;;
51957;SDS011;41120;51.820;20.804;2022-10-18T01:34:15;23.00;;;12.83;;
51957;SDS011;41120;51.820;20.804;2022-10-18T01:36:45;22.07;;;12.83;;
51957;SDS011;41120;51.820;20.804;2022-10-18T01:39:16;21.95;;;12.07;;
51957;SDS011;41120;51.820;20.804;2022-10-18T01:41:47;19.08;;;12.35;;
51957;SDS011;41120;51.820;20.804;2022-10-18T01:44:17;18.77;;;11.80;;
51957;SDS011;41120;51.820;20.804;2022-10-18T01:46:47;21.08;;;12.23;;
51957;SDS011;41120;51.820;20.804;2022-10-18T01:49:15;22.93;;;11.23;;
51957;SDS011;41120;51.820;20.804;2022-10-18T01:51:41;19.87;;;12.30;;
51957;SDS011;41120;51.820;20.804;2022-10-18T01:54:14;19.40;;;12.30;;
51957;SDS011;41120;51.820;20.804;2022-10-18T02:04:53;19.17;;;11.90;;
51957;SDS011;41120;51.820;20.804;2022-10-18T02:07:48;17.77;;;10.67;;
51957;SDS011;41120;51.820;20.804;2022-10-18T02:10:28;19.90;;;11.73;;
51957;SDS011;41120;51.820;20.804;2022-10-18T02:13:00;20.53;;;12.13;;
51957;SDS011;41120;51.820;20.804;2022-10-18T02:15:31;19.93;;;13.00;;
51957;SDS011;41120;51.820;20.804;2022-10-18T02:18:01;20.20;;;12.13;;
51957;SDS011;41120;51.820;20.804;2022-10-18T02:20:32;18.45;;;11.82;;
51957;SDS011;41120;51.820;20.804;2022-10-18T02:23:01;18.43;;;12.40;;
51957;SDS011;41120;51.820;20.804;2022-10-18T02:25:29;19.83;;;12.40;;
51957;SDS011;41120;51.820;20.804;2022-10-18T02:27:57;19.30;;;11.63;;
51957;SDS011;41120;51.820;20.804;2022-10-18T02:30:26;17.23;;;11.53;;
51957;SDS011;41120;51.820;20.804;2022-10-18T02:33:06;18.33;;;12.57;;
51957;SDS011;41120;51.820;20.804;2022-10-18T02:35:40;19.20;;;11.43;;
51957;SDS011;41120;51.820;20.804;2022-10-18T02:38:13;22.47;;;12.37;;
51957;SDS011;41120;51.820;20.804;2022-10-18T02:40:40;19.97;;;12.27;;
51957;SDS011;41120;51.820;20.804;2022-10-18T02:43:06;21.33;;;12.70;;
51957;SDS011;41120;51.820;20.804;2022-10-18T02:45:32;18.83;;;12.33;;
51957;SDS011;41120;51.820;20.804;2022-10-18T02:47:59;25.43;;;13.80;;
51957;SDS011;41120;51.820;20.804;2022-10-18T02:50:24;21.30;;;12.63;;
51957;SDS011;41120;51.820;20.804;2022-10-18T02:52:50;17.50;;;11.93;;
51957;SDS011;41120;51.820;20.804;2022-10-18T02:55:16;19.90;;;12.87;;
51957;SDS011;41120;51.820;20.804;2022-10-18T02:57:43;20.47;;;13.33;;
51957;SDS011;41120;51.820;20.804;2022-10-18T03:00:08;22.40;;;13.20;;
51957;SDS011;41120;51.820;20.804;2022-10-18T03:02:35;19.70;;;13.03;;
51957;SDS011;41120;51.820;20.804;2022-10-18T03:05:01;21.20;;;12.47;;
51957;SDS011;41120;51.820;20.804;2022-10-18T03:07:27;21.27;;;12.90;;
51957;SDS011;41120;51.820;20.804;2022-10-18T03:09:53;22.77;;;12.13;;
51957;SDS011;41120;51.820;20.804;2022-10-18T03:12:19;20.80;;;11.73;;
51957;SDS011;41120;51.820;20.804;2022-10-18T03:14:45;21.77;;;12.87;;
51957;SDS011;41120;51.820;20.804;2022-10-18T03:17:11;58.03;;;24.67;;
51957;SDS011;41120;51.820;20.804;2022-10-18T03:19:37;57.47;;;32.63;;
51957;SDS011;41120;51.820;20.804;2022-10-18T03:22:04;55.30;;;32.97;;
51957;SDS011;41120;51.820;20.804;2022-10-18T03:24:30;26.77;;;16.57;;
51957;SDS011;41120;51.820;20.804;2022-10-18T03:26:56;21.80;;;15.00;;
51957;SDS011;41120;51.820;20.804;2022-10-18T03:29:22;24.63;;;15.33;;
51957;SDS011;41120;51.820;20.804;2022-10-18T03:31:48;30.13;;;17.87;;
51957;SDS011;41120;51.820;20.804;2022-10-18T03:34:14;23.80;;;15.10;;
51957;SDS011;41120;51.820;20.804;2022-10-18T03:36:42;21.97;;;14.63;;
51957;SDS011;41120;51.820;20.804;2022-10-18T03:39:08;19.17;;;13.07;;
51957;SDS011;41120;51.820;20.804;2022-10-18T03:41:36;20.93;;;14.10;;
51957;SDS011;41120;51.820;20.804;2022-10-18T03:44:02;24.37;;;13.27;;
51957;SDS011;41120;51.820;20.804;2022-10-18T03:46:29;23.27;;;16.97;;
51957;SDS011;41120;51.820;20.804;2022-10-18T03:48:55;22.17;;;14.83;;
51957;SDS011;41120;51.820;20.804;2022-10-18T03:51:21;19.70;;;12.77;;
51957;SDS011;41120;51.820;20.804;2022-10-18T03:53:47;22.77;;;12.97;;
51957;SDS011;41120;51.820;20.804;2022-10-18T03:56:13;22.40;;;13.10;;
51957;SDS011;41120;51.820;20.804;2022-10-18T03:58:39;21.63;;;12.27;;
51957;SDS011;41120;51.820;20.804;2022-10-18T04:01:05;19.80;;;12.90;;
51957;SDS011;41120;51.820;20.804;2022-10-18T04:03:31;18.73;;;13.07;;
51957;SDS011;41120;51.820;20.804;2022-10-18T04:05:57;20.53;;;12.90;;
51957;SDS011;41120;51.820;20.804;2022-10-18T04:08:25;20.23;;;12.57;;
51957;SDS011;41120;51.820;20.804;2022-10-18T04:10:51;20.30;;;13.30;;
51957;SDS011;41120;51.820;20.804;2022-10-18T04:13:17;19.17;;;12.53;;
51957;SDS011;41120;51.820;20.804;2022-10-18T04:15:43;24.93;;;13.83;;
51957;SDS011;41120;51.820;20.804;2022-10-18T04:18:09;21.23;;;13.03;;
51957;SDS011;41120;51.820;20.804;2022-10-18T04:20:35;19.63;;;12.27;;
51957;SDS011;41120;51.820;20.804;2022-10-18T04:23:01;20.17;;;12.80;;
51957;SDS011;41120;51.820;20.804;2022-10-18T04:25:27;20.90;;;11.90;;
51957;SDS011;41120;51.820;20.804;2022-10-18T04:27:56;20.23;;;12.67;;
51957;SDS011;41120;51.820;20.804;2022-10-18T04:30:23;17.87;;;12.30;;
51957;SDS011;41120;51.820;20.804;2022-10-18T04:32:48;21.20;;;11.57;;
51957;SDS011;41120;51.820;20.804;2022-10-18T04:35:15;17.00;;;11.60;;
51957;SDS011;41120;51.820;20.804;2022-10-18T04:37:41;18.13;;;11.23;;
51957;SDS011;41120;51.820;20.804;2022-10-18T04:40:08;19.00;;;13.07;;
51957;SDS011;41120;51.820;20.804;2022-10-18T04:42:35;19.23;;;12.27;;
51957;SDS011;41120;51.820;20.804;2022-10-18T04:45:05;21.23;;;12.50;;
51957;SDS011;41120;51.820;20.804;2022-10-18T04:47:31;19.47;;;11.90;;
51957;SDS011;41120;51.820;20.804;2022-10-18T04:49:57;20.23;;;12.20;;
51957;SDS011;41120;51.820;20.804;2022-10-18T04:52:23;19.23;;;12.97;;
51957;SDS011;41120;51.820;20.804;2022-10-18T04:54:49;28.07;;;11.70;;
51957;SDS011;41120;51.820;20.804;2022-10-18T04:57:15;18.30;;;12.27;;
51957;SDS011;41120;51.820;20.804;2022-10-18T04:59:42;21.70;;;13.00;;
51957;SDS011;41120;51.820;20.804;2022-10-18T05:02:08;20.07;;;12.20;;
51957;SDS011;41120;51.820;20.804;2022-10-18T05:04:34;20.90;;;12.73;;
51957;SDS011;41120;51.820;20.804;2022-10-18T05:07:00;17.00;;;11.43;;
51957;SDS011;41120;51.820;20.804;2022-10-18T05:09:27;19.37;;;12.47;;
51957;SDS011;41120;51.820;20.804;2022-10-18T05:12:00;19.60;;;12.70;;
51957;SDS011;41120;51.820;20.804;2022-10-18T05:17:24;24.27;;;16.23;;
51957;SDS011;41120;51.820;20.804;2022-10-18T05:33:01;42.92;;;19.38;;
51957;SDS011;41120;51.820;20.804;2022-10-18T05:38:39;20.47;;;12.57;;
51957;SDS011;41120;51.820;20.804;2022-10-18T05:41:10;16.30;;;11.75;;
51957;SDS011;41120;51.820;20.804;2022-10-18T05:43:51;18.70;;;12.63;;
51957;SDS011;41120;51.820;20.804;2022-10-18T05:52:09;15.70;;;10.77;;
51957;SDS011;41120;51.820;20.804;2022-10-18T06:16:22;16.13;;;9.00;;
51957;SDS011;41120;51.820;20.804;2022-10-18T06:43:24;15.10;;;9.57;;
51957;SDS011;41120;51.820;20.804;2022-10-18T06:55:35;11.97;;;7.73;;
51957;SDS011;41120;51.820;20.804;2022-10-18T07:06:24;14.17;;;8.53;;
51957;SDS011;41120;51.820;20.804;2022-10-18T07:18:04;14.83;;;9.20;;
51957;SDS011;41120;51.820;20.804;2022-10-18T07:41:58;11.30;;;7.00;;
51957;SDS011;41120;51.820;20.804;2022-10-18T07:47:30;12.80;;;7.07;;
51957;SDS011;41120;51.820;20.804;2022-10-18T07:49:57;10.50;;;6.13;;
51957;SDS011;41120;51.820;20.804;2022-10-18T07:55:09;14.50;;;6.20;;
51957;SDS011;41120;51.820;20.804;2022-10-18T08:15:33;8.13;;;5.33;;
51957;SDS011;41120;51.820;20.804;2022-10-18T08:18:05;8.07;;;5.40;;
51957;SDS011;41120;51.820;20.804;2022-10-18T08:26:23;9.20;;;5.60;;
51957;SDS011;41120;51.820;20.804;2022-10-18T08:28:55;10.53;;;5.80;;
51957;SDS011;41120;51.820;20.804;2022-10-18T08:31:36;7.63;;;5.95;;
51957;SDS011;41120;51.820;20.804;2022-10-18T08:37:18;11.23;;;6.27;;
51957;SDS011;41120;51.820;20.804;2022-10-18T09:04:36;10.33;;;6.47;;
51957;SDS011;41120;51.820;20.804;2022-10-18T09:16:10;9.77;;;6.47;;
51957;SDS011;41120;51.820;20.804;2022-10-18T09:27:55;13.77;;;7.10;;
51957;SDS011;41120;51.820;20.804;2022-10-18T09:36:04;9.70;;;6.70;;
51957;SDS011;41120;51.820;20.804;2022-10-18T09:38:41;15.00;;;7.40;;
51957;SDS011;41120;51.820;20.804;2022-10-18T09:41:15;11.30;;;7.10;;
51957;SDS011;41120;51.820;20.804;2022-10-18T09:46:17;13.67;;;6.73;;
51957;SDS011;41120;51.820;20.804;2022-10-18T09:48:58;11.20;;;7.20;;
51957;SDS011;41120;51.820;20.804;2022-10-18T09:51:32;12.03;;;7.33;;
51957;SDS011;41120;51.820;20.804;2022-10-18T09:54:14;14.40;;;7.77;;
51957;SDS011;41120;51.820;20.804;2022-10-18T09:59:37;15.03;;;8.37;;
51957;SDS011;41120;51.820;20.804;2022-10-18T10:02:17;14.20;;;8.48;;
51957;SDS011;41120;51.820;20.804;2022-10-18T10:04:58;15.10;;;9.30;;
51957;SDS011;41120;51.820;20.804;2022-10-18T10:10:25;14.43;;;8.07;;
51957;SDS011;41120;51.820;20.804;2022-10-18T10:19:02;10.97;;;7.87;;
51957;SDS011;41120;51.820;20.804;2022-10-18T10:21:28;17.43;;;9.20;;
51957;SDS011;41120;51.820;20.804;2022-10-18T10:44:41;11.85;;;8.30;;
51957;SDS011;41120;51.820;20.804;2022-10-18T10:50:50;14.25;;;9.63;;
51957;SDS011;41120;51.820;20.804;2022-10-18T10:53:25;14.90;;;9.50;;
51957;SDS011;41120;51.820;20.804;2022-10-18T10:55:58;13.97;;;9.50;;
51957;SDS011;41120;51.820;20.804;2022-10-18T11:20:07;16.43;;;9.43;;
51957;SDS011;41120;51.820;20.804;2022-10-18T11:31:48;18.00;;;11.17;;
51957;SDS011;41120;51.820;20.804;2022-10-18T11:40:02;14.93;;;10.03;;
51957;SDS011;41120;51.820;20.804;2022-10-18T12:04:16;16.10;;;11.30;;
51957;SDS011;41120;51.820;20.804;2022-10-18T12:58:49;15.37;;;10.77;;
51957;SDS011;41120;51.820;20.804;2022-10-18T13:01:16;15.67;;;11.33;;
51957;SDS011;41120;51.820;20.804;2022-10-18T13:03:59;15.77;;;11.10;;
51957;SDS011;41120;51.820;20.804;2022-10-18T13:45:51;15.47;;;11.37;;
51957;SDS011;41120;51.820;20.804;2022-10-18T13:51:05;16.27;;;11.70;;
51957;SDS011;41120;51.820;20.804;2022-10-18T14:07:44;21.80;;;13.00;;
51957;SDS011;41120;51.820;20.804;2022-10-18T14:16:37;19.47;;;12.20;;
51957;SDS011;41120;51.820;20.804;2022-10-18T14:19:28;18.65;;;12.35;;
51957;SDS011;41120;51.820;20.804;2022-10-18T14:34:55;21.42;;;13.40;;
51957;SDS011;41120;51.820;20.804;2022-10-18T14:46:42;22.70;;;13.70;;
51957;SDS011;41120;51.820;20.804;2022-10-18T14:49:13;18.07;;;13.43;;
51957;SDS011;41120;51.820;20.804;2022-10-18T14:55:22;24.57;;;13.20;;
51957;SDS011;41120;51.820;20.804;2022-10-18T15:52:32;27.50;;;16.37;;
51957;SDS011;41120;51.820;20.804;2022-10-18T16:10:59;71.53;;;45.43;;
51957;SDS011;41120;51.820;20.804;2022-10-18T16:16:47;52.23;;;34.00;;
51957;SDS011;41120;51.820;20.804;2022-10-18T16:19:19;36.28;;;20.75;;
51957;SDS011;41120;51.820;20.804;2022-10-18T16:21:53;31.03;;;19.10;;
51957;SDS011;41120;51.820;20.804;2022-10-18T16:27:14;34.33;;;22.83;;
51957;SDS011;41120;51.820;20.804;2022-10-18T16:33:12;38.90;;;24.23;;
51957;SDS011;41120;51.820;20.804;2022-10-18T16:35:45;38.33;;;25.13;;
51957;SDS011;41120;51.820;20.804;2022-10-18T16:45:15;35.47;;;24.23;;
51957;SDS011;41120;51.820;20.804;2022-10-18T16:51:10;29.47;;;22.60;;
51957;SDS011;41120;51.820;20.804;2022-10-18T16:53:37;31.70;;;21.50;;
51957;SDS011;41120;51.820;20.804;2022-10-18T16:56:11;17.50;;;9.43;;
51957;SDS011;41120;51.820;20.804;2022-10-18T17:04:56;8.27;;;5.30;;
51957;SDS011;41120;51.820;20.804;2022-10-18T17:07:37;7.23;;;5.17;;
51957;SDS011;41120;51.820;20.804;2022-10-18T17:10:14;7.60;;;5.47;;
51957;SDS011;41120;51.820;20.804;2022-10-18T17:15:53;6.47;;;4.07;;
51957;SDS011;41120;51.820;20.804;2022-10-18T17:18:22;4.87;;;3.47;;
51957;SDS011;41120;51.820;20.804;2022-10-18T17:20:57;5.53;;;3.10;;
51957;SDS011;41120;51.820;20.804;2022-10-18T17:27:08;6.27;;;3.67;;
51957;SDS011;41120;51.820;20.804;2022-10-18T17:29:46;6.53;;;4.57;;
51957;SDS011;41120;51.820;20.804;2022-10-18T17:35:21;8.17;;;5.50;;
51957;SDS011;41120;51.820;20.804;2022-10-18T17:40:42;6.40;;;4.50;;
51957;SDS011;41120;51.820;20.804;2022-10-18T17:43:17;10.10;;;6.43;;
51957;SDS011;41120;51.820;20.804;2022-10-18T17:54:51;60.93;;;48.63;;
51957;SDS011;41120;51.820;20.804;2022-10-18T17:57:17;15.63;;;13.43;;
51957;SDS011;41120;51.820;20.804;2022-10-18T18:02:47;16.77;;;13.70;;
51957;SDS011;41120;51.820;20.804;2022-10-18T18:05:20;18.40;;;14.07;;
51957;SDS011;41120;51.820;20.804;2022-10-18T18:13:22;8.20;;;5.60;;
51957;SDS011;41120;51.820;20.804;2022-10-18T18:31:07;6.83;;;4.27;;
51957;SDS011;41120;51.820;20.804;2022-10-18T18:33:43;6.87;;;4.33;;
51957;SDS011;41120;51.820;20.804;2022-10-18T18:36:19;8.27;;;4.67;;
51957;SDS011;41120;51.820;20.804;2022-10-18T18:41:46;7.40;;;5.07;;
51957;SDS011;41120;51.820;20.804;2022-10-18T18:44:15;7.47;;;4.93;;
51957;SDS011;41120;51.820;20.804;2022-10-18T18:52:41;11.80;;;5.83;;
51957;SDS011;41120;51.820;20.804;2022-10-18T19:01:52;6.37;;;4.70;;
51957;SDS011;41120;51.820;20.804;2022-10-18T19:13:37;142.37;;;62.27;;
51957;SDS011;41120;51.820;20.804;2022-10-18T19:16:37;71.95;;;34.85;;
51957;SDS011;41120;51.820;20.804;2022-10-18T19:19:19;55.40;;;29.13;;
51957;SDS011;41120;51.820;20.804;2022-10-18T19:21:59;62.37;;;35.60;;
51957;SDS011;41120;51.820;20.804;2022-10-18T19:24:45;34.97;;;19.40;;
51957;SDS011;41120;51.820;20.804;2022-10-18T19:27:18;9.80;;;7.60;;
51957;SDS011;41120;51.820;20.804;2022-10-18T19:29:52;15.67;;;11.40;;
51957;SDS011;41120;51.820;20.804;2022-10-18T19:38:46;8.40;;;5.90;;
51957;SDS011;41120;51.820;20.804;2022-10-18T19:41:12;7.90;;;5.13;;
51957;SDS011;41120;51.820;20.804;2022-10-18T19:43:39;7.30;;;5.10;;
51957;SDS011;41120;51.820;20.804;2022-10-18T19:46:04;5.83;;;4.03;;
51957;SDS011;41120;51.820;20.804;2022-10-18T19:48:31;7.23;;;4.87;;
51957;SDS011;41120;51.820;20.804;2022-10-18T19:51:01;8.23;;;5.27;;
51957;SDS011;41120;51.820;20.804;2022-10-18T19:55:57;6.43;;;4.40;;
51957;SDS011;41120;51.820;20.804;2022-10-18T19:58:26;7.57;;;4.87;;
51957;SDS011;41120;51.820;20.804;2022-10-18T20:01:00;7.47;;;4.20;;
51957;SDS011;41120;51.820;20.804;2022-10-18T20:06:00;6.43;;;3.90;;
51957;SDS011;41120;51.820;20.804;2022-10-18T20:08:33;6.13;;;4.27;;
51957;SDS011;41120;51.820;20.804;2022-10-18T20:11:03;8.63;;;4.90;;
51957;SDS011;41120;51.820;20.804;2022-10-18T20:13:43;6.87;;;5.13;;
51957;SDS011;41120;51.820;20.804;2022-10-18T20:19:20;8.53;;;5.90;;
51957;SDS011;41120;51.820;20.804;2022-10-18T20:24:46;8.73;;;6.00;;
51957;SDS011;41120;51.820;20.804;2022-10-18T20:27:20;10.60;;;6.37;;
51957;SDS011;41120;51.820;20.804;2022-10-18T20:29:48;10.23;;;6.70;;
51957;SDS011;41120;51.820;20.804;2022-10-18T20:32:17;10.30;;;6.90;;
51957;SDS011;41120;51.820;20.804;2022-10-18T20:46:16;10.03;;;7.20;;
51957;SDS011;41120;51.820;20.804;2022-10-18T20:48:48;12.10;;;8.23;;
51957;SDS011;41120;51.820;20.804;2022-10-18T20:51:15;11.83;;;8.17;;
51957;SDS011;41120;51.820;20.804;2022-10-18T20:56:21;11.20;;;8.00;;
51957;SDS011;41120;51.820;20.804;2022-10-18T20:59:02;12.00;;;9.13;;
51957;SDS011;41120;51.820;20.804;2022-10-18T21:01:45;15.50;;;9.33;;
51957;SDS011;41120;51.820;20.804;2022-10-18T21:04:21;16.73;;;9.60;;
51957;SDS011;41120;51.820;20.804;2022-10-18T21:06:48;13.77;;;9.50;;
51957;SDS011;41120;51.820;20.804;2022-10-18T21:09:20;13.73;;;9.47;;
51957;SDS011;41120;51.820;20.804;2022-10-18T21:26:58;22.50;;;14.27;;
51957;SDS011;41120;51.820;20.804;2022-10-18T21:32:18;25.33;;;15.25;;
51957;SDS011;41120;51.820;20.804;2022-10-18T21:34:45;24.30;;;15.63;;
51957;SDS011;41120;51.820;20.804;2022-10-18T21:37:21;26.03;;;16.80;;
51957;SDS011;41120;51.820;20.804;2022-10-18T21:39:49;29.77;;;17.50;;
51957;SDS011;41120;51.820;20.804;2022-10-18T21:42:20;28.93;;;17.43;;
51957;SDS011;41120;51.820;20.804;2022-10-18T21:50:47;29.10;;;18.70;;
51957;SDS011;41120;51.820;20.804;2022-10-18T21:53:19;29.90;;;17.60;;
51957;SDS011;41120;51.820;20.804;2022-10-18T21:55:46;30.53;;;17.80;;
51957;SDS011;41120;51.820;20.804;2022-10-18T21:58:14;26.50;;;16.83;;
51957;SDS011;41120;51.820;20.804;2022-10-18T22:00:45;29.30;;;16.70;;
51957;SDS011;41120;51.820;20.804;2022-10-18T22:03:22;24.27;;;16.37;;
51957;SDS011;41120;51.820;20.804;2022-10-18T22:26:50;24.45;;;16.13;;
51957;SDS011;41120;51.820;20.804;2022-10-18T22:29:20;22.07;;;15.70;;
51957;SDS011;41120;51.820;20.804;2022-10-18T22:35:04;22.90;;;16.00;;
51957;SDS011;41120;51.820;20.804;2022-10-18T22:40:50;21.17;;;15.07;;
51957;SDS011;41120;51.820;20.804;2022-10-18T22:43:22;29.80;;;16.10;;
51957;SDS011;41120;51.820;20.804;2022-10-18T22:45:51;23.60;;;16.13;;
51957;SDS011;41120;51.820;20.804;2022-10-18T22:48:17;24.90;;;15.90;;
51957;SDS011;41120;51.820;20.804;2022-10-18T22:50:43;25.77;;;16.27;;
51957;SDS011;41120;51.820;20.804;2022-10-18T22:53:20;24.97;;;16.50;;
51957;SDS011;41120;51.820;20.804;2022-10-18T23:08:55;27.07;;;17.50;;
51957;SDS011;41120;51.820;20.804;2022-10-18T23:11:24;28.73;;;16.80;;
51957;SDS011;41120;51.820;20.804;2022-10-18T23:19:53;22.13;;;15.07;;
51957;SDS011;41120;51.820;20.804;2022-10-18T23:22:24;30.40;;;15.93;;
51957;SDS011;41120;51.820;20.804;2022-10-18T23:24:52;23.57;;;15.43;;
51957;SDS011;41120;51.820;20.804;2022-10-18T23:27:24;21.90;;;15.20;;
51957;SDS011;41120;51.820;20.804;2022-10-18T23:29:49;22.57;;;14.80;;
51957;SDS011;41120;51.820;20.804;2022-10-18T23:32:29;26.07;;;15.87;;
51957;SDS011;41120;51.820;20.804;2022-10-18T23:44:22;22.58;;;14.80;;
51957;SDS011;41120;51.820;20.804;2022-10-18T23:46:51;32.93;;;16.40;;
51957;SDS011;41120;51.820;20.804;2022-10-18T23:49:22;22.70;;;14.90;;
51957;SDS011;41120;51.820;20.804;2022-10-18T23:51:54;28.50;;;17.25;;
51957;SDS011;41120;51.820;20.804;2022-10-18T23:57:27;26.57;;;15.70;;
